KIWD/IWD METAR and TAF weather

Enter ICAO airport designator
Station Type Date Time Source
KIWD METAR 2022/08/12 14:56 UTC NOAA

KIWD 121456Z AUTO 19011G17KT 10SM FEW110 19/13 A3022 RMK AO2 SLP237 T01940133 58002


Station Type Date Time Source
KIWD Decoded METAR 2022/08/12 14:56 UTC NOAA

Ironwood, Gogebic-Iron County Airport, MI, United States (KIWD) 46-32N 090-08W
Aug 12, 2022 - 10:56 AM EDT / 2022.08.12 1456 UTC
Wind: from the S (190 degrees) at 13 MPH (11 KT) gusting to 20 MPH (17 KT):0
Visibility: 10 mile(s):0
Sky conditions: mostly clear
Temperature: 66.9 F (19.4 C)
Dew Point: 55.9 F (13.3 C)
Relative Humidity: 67%
Pressure (altimeter): 30.22 in. Hg (1023 hPa)
Pressure tendency: 0.01 inches (0.2 hPa) lower than three hours ago
ob: KIWD 121456Z AUTO 19011G17KT 10SM FEW110 19/13 A3022 RMK AO2 SLP237 T01940133 58002
cycle: 15

Station Type Date Time Source
KIWD TAF 2022/08/12 12:27 UTC NOAA

TAF KIWD 121125Z 1212/1312 17008KT P6SM SKC
FM121400 20007KT P6SM SCT220
FM130800 15007KT P6SM BKN045

Example: see airport list